Euskara    
Meteorología y climatología de Navarra
Datos de la estación - Meteo Navarra

Estación de Aralar GN

Altitud 1344 m.


Datos desde el 23/02/2021 hasta el 24/02/2021 en horario solar
Los datos son PROVISIONALES

Anterior Página 1 de 1 Siguiente Descargar: Formato para Excel 2000 o superior   Formato csv   Formato para OpenOffice Calc
Fecha Temperatura Humedad relativa Radiación global Insolación Precipitación Vel. viento 10 m Vel. viento 10 m Dir. viento 10 m
°C % W/m² s l/m² m/s km/h °
23/02/2021 0:00 1.9 100 0.0 0 0.1 - - - - - -
23/02/2021 0:10 2.0 100 0.0 0 0.0 - - - - - -
23/02/2021 0:20 2.0 100 0.0 0 0.0 - - - - - -
23/02/2021 0:30 1.9 100 0.0 0 0.0 - - - - - -
23/02/2021 0:40 2.0 100 0.0 0 0.0 - - - - - -
23/02/2021 0:50 1.9 100 0.0 0 0.0 - - - - - -
23/02/2021 1:00 2.0 100 0.0 0 0.0 - - - - - -
23/02/2021 1:10 1.9 100 0.0 0 0.0 - - - - - -
23/02/2021 1:20 1.9 100 0.0 0 0.0 - - - - - -
23/02/2021 1:30 1.9 100 0.0 0 0.0 - - - - - -
23/02/2021 1:40 1.9 100 0.0 0 0.0 - - - - - -
23/02/2021 1:50 1.9 100 0.0 0 0.0 - - - - - -
23/02/2021 2:00 1.9 100 0.0 0 0.1 - - - - - -
23/02/2021 2:10 1.8 100 0.0 0 0.0 - - - - - -
23/02/2021 2:20 1.7 100 0.0 0 0.0 - - - - - -
23/02/2021 2:30 1.7 100 0.0 0 0.0 - - - - - -
23/02/2021 2:40 1.7 100 0.0 0 0.0 - - - - - -
23/02/2021 2:50 1.7 100 0.0 0 0.0 - - - - - -
23/02/2021 3:00 1.8 100 0.0 0 0.0 - - - - - -
23/02/2021 3:10 1.7 100 0.0 0 0.1 - - - - - -
23/02/2021 3:20 1.7 100 0.0 0 0.0 - - - - - -
23/02/2021 3:30 1.6 100 0.0 0 0.0 - - - - - -
23/02/2021 3:40 1.7 100 0.0 0 0.0 - - - - - -
23/02/2021 3:50 1.7 100 0.0 0 0.0 - - - - - -
23/02/2021 4:00 1.7 100 0.0 0 0.0 - - - - - -
23/02/2021 4:10 1.7 100 0.0 0 0.0 - - - - - -
23/02/2021 4:20 1.8 100 0.0 0 0.0 - - - - - -
23/02/2021 4:30 1.7 100 0.0 0 0.1 - - - - - -
23/02/2021 4:40 1.7 100 0.0 0 0.0 - - - - - -
23/02/2021 4:50 1.6 100 0.0 0 0.0 - - - - - -
23/02/2021 5:00 1.6 100 0.0 0 0.0 - - - - - -
23/02/2021 5:10 1.6 100 0.0 0 0.0 - - - - - -
23/02/2021 5:20 1.7 100 0.0 0 0.0 - - - - - -
23/02/2021 5:30 1.7 100 0.0 0 0.0 - - - - - -
23/02/2021 5:40 1.6 100 0.0 0 0.0 - - - - - -
23/02/2021 5:50 1.6 100 0.0 0 0.0 - - - - - -
23/02/2021 6:00 1.5 100 0.0 0 0.0 - - - - - -
23/02/2021 6:10 1.4 100 0.0 0 0.0 - - - - - -
23/02/2021 6:20 1.5 100 0.0 0 0.0 - - - - - -
23/02/2021 6:30 1.4 100 0.0 0 0.0 - - - - - -
23/02/2021 6:40 1.4 100 0.0 0 0.0 - - - - - -
23/02/2021 6:50 1.4 100 0.0 0 0.0 - - - - - -
23/02/2021 7:00 1.4 100 0.0 0 0.0 - - - - - -
23/02/2021 7:10 1.4 100 0.0 0 0.0 - - - - - -
23/02/2021 7:20 1.4 100 1.9 0 0.0 - - - - - -
23/02/2021 7:30 1.4 100 7.5 0 0.0 - - - - - -
23/02/2021 7:40 1.4 100 18.8 0 0.0 - - - - - -
23/02/2021 7:50 1.6 100 32.0 0 0.0 - - - - - -
23/02/2021 8:00 1.7 100 55.5 34 0.0 - - - - - -
23/02/2021 8:10 1.7 100 80.0 104 0.0 - - - - - -
23/02/2021 8:20 1.7 100 78.4 72 0.0 - - - - - -
23/02/2021 8:30 1.8 100 152.0 250 0.0 - - - - - -
23/02/2021 8:40 2.2 100 219.1 500 0.0 - - - - - -
23/02/2021 8:50 2.3 100 225.2 366 0.0 - - - - - -
23/02/2021 9:00 2.4 100 219.2 340 0.0 - - - - - -
23/02/2021 9:10 2.7 100 268.0 388 0.0 - - - - - -
23/02/2021 9:20 2.8 100 235.8 256 0.0 - - - - - -
23/02/2021 9:30 2.8 100 196.6 174 0.0 - - - - - -
23/02/2021 9:40 2.5 100 154.7 110 0.0 - - - - - -
23/02/2021 9:50 2.2 100 129.6 24 0.0 - - - - - -
23/02/2021 10:00 2.2 100 141.6 24 0.0 - - - - - -
23/02/2021 10:10 2.2 100 174.0 68 0.0 - - - - - -
23/02/2021 10:20 2.2 100 175.9 120 0.0 - - - - - -
23/02/2021 10:30 2.2 100 153.2 0 0.0 - - - - - -
23/02/2021 10:40 2.2 100 167.3 26 0.0 - - - - - -
23/02/2021 10:50 2.2 100 185.3 58 0.0 - - - - - -
23/02/2021 11:00 2.2 100 154.2 30 0.0 - - - - - -
23/02/2021 11:10 2.2 100 182.2 48 0.0 - - - - - -
23/02/2021 11:20 2.3 100 142.9 24 0.0 - - - - - -
23/02/2021 11:30 2.4 100 138.8 0 0.0 - - - - - -
23/02/2021 11:40 2.5 100 153.1 34 0.0 - - - - - -
23/02/2021 11:50 2.6 100 218.5 114 0.0 - - - - - -
23/02/2021 12:00 3.0 100 200.7 44 0.0 - - - - - -
23/02/2021 12:10 3.2 100 299.8 180 0.0 - - - - - -
23/02/2021 12:20 3.5 100 325.6 156 0.0 - - - - - -
23/02/2021 12:30 3.7 98 310.9 182 0.0 - - - - - -
23/02/2021 12:40 4.0 96 342.7 246 0.0 - - - - - -
23/02/2021 12:50 4.3 95 295.2 148 0.0 - - - - - -
23/02/2021 13:00 4.6 94 419.3 276 0.0 - - - - - -
23/02/2021 13:10 4.9 89 385.4 192 0.0 - - - - - -
23/02/2021 13:20 4.9 88 464.0 356 0.0 - - - - - -
23/02/2021 13:30 5.2 83 586.0 426 0.0 - - - - - -
23/02/2021 13:40 5.5 80 714.3 558 0.0 - - - - - -
23/02/2021 13:50 5.9 79 679.3 576 0.0 - - - - - -
23/02/2021 14:00 5.8 80 603.8 486 0.0 - - - - - -
23/02/2021 14:10 5.9 82 632.8 508 0.0 - - - - - -
23/02/2021 14:20 6.0 80 564.5 516 0.0 - - - - - -
23/02/2021 14:30 6.0 81 508.9 426 0.0 - - - - - -
23/02/2021 14:40 6.2 78 597.1 598 0.0 - - - - - -
23/02/2021 14:50 6.0 76 396.0 372 0.0 - - - - - -
23/02/2021 15:00 5.8 79 417.7 430 0.0 - - - - - -
23/02/2021 15:10 5.7 81 439.7 466 0.0 - - - - - -
23/02/2021 15:20 5.8 82 365.6 420 0.0 - - - - - -
23/02/2021 15:30 5.6 82 361.4 448 0.0 - - - - - -
23/02/2021 15:40 5.7 83 418.2 578 0.0 - - - - - -
23/02/2021 15:50 5.8 83 394.5 568 0.0 - - - - - -
23/02/2021 16:00 5.6 85 332.6 494 0.0 - - - - - -
23/02/2021 16:10 5.7 87 267.3 438 0.0 - - - - - -
23/02/2021 16:20 5.7 88 334.7 534 0.0 - - - - - -
23/02/2021 16:30 5.5 89 194.0 368 0.0 - - - - - -
23/02/2021 16:40 5.4 91 213.2 472 0.0 - - - - - -
23/02/2021 16:50 5.3 91 137.1 346 0.0 - - - - - -
23/02/2021 17:00 5.1 92 76.1 242 0.0 - - - - - -
23/02/2021 17:10 5.1 92 46.1 16 0.0 - - - - - -
23/02/2021 17:20 5.0 93 41.2 172 0.0 - - - - - -
23/02/2021 17:30 4.9 94 21.2 82 0.0 - - - - - -
23/02/2021 17:40 4.8 94 0.8 0 0.0 - - - - - -
23/02/2021 17:50 4.9 96 0.9 0 0.0 - - - - - -
23/02/2021 18:00 4.9 97 0.0 0 0.0 - - - - - -
23/02/2021 18:10 4.7 98 0.0 0 0.0 - - - - - -
23/02/2021 18:20 4.7 99 0.0 0 0.0 - - - - - -
23/02/2021 18:30 4.7 99 0.0 0 0.0 - - - - - -
23/02/2021 18:40 4.7 99 0.0 0 0.0 - - - - - -
23/02/2021 18:50 4.6 100 0.0 0 0.0 - - - - - -
23/02/2021 19:00 4.7 99 0.0 0 0.0 - - - - - -
23/02/2021 19:10 4.7 97 0.0 0 0.0 - - - - - -
23/02/2021 19:20 4.6 97 0.0 0 0.0 - - - - - -
23/02/2021 19:30 4.7 96 0.0 0 0.0 - - - - - -
23/02/2021 19:40 4.7 96 0.0 0 0.0 - - - - - -
23/02/2021 19:50 4.7 97 0.0 0 0.0 - - - - - -
23/02/2021 20:00 4.6 98 0.0 0 0.0 - - - - - -
23/02/2021 20:10 4.5 99 0.0 0 0.0 - - - - - -
23/02/2021 20:20 4.5 99 0.0 0 0.0 - - - - - -
23/02/2021 20:30 4.6 98 0.0 0 0.0 - - - - - -
23/02/2021 20:40 4.7 97 0.0 0 0.0 - - - - - -
23/02/2021 20:50 4.5 98 0.0 0 0.0 - - - - - -
23/02/2021 21:00 4.5 98 0.0 0 0.0 - - - - - -
23/02/2021 21:10 4.5 97 0.0 0 0.0 - - - - - -
23/02/2021 21:20 4.4 98 0.0 0 0.0 - - - - - -
23/02/2021 21:30 4.5 96 0.0 0 0.0 - - - - - -
23/02/2021 21:40 4.6 98 0.0 0 0.0 - - - - - -
23/02/2021 21:50 4.6 97 0.0 0 0.0 - - - - - -
23/02/2021 22:00 4.5 98 0.0 0 0.0 - - - - - -
23/02/2021 22:10 4.4 98 0.0 0 0.0 - - - - - -
23/02/2021 22:20 4.5 97 0.0 0 0.0 - - - - - -
23/02/2021 22:30 4.4 100 0.0 0 0.0 - - - - - -
23/02/2021 22:40 4.4 100 0.0 0 0.0 - - - - - -
23/02/2021 22:50 4.3 100 0.0 0 0.0 - - - - - -
23/02/2021 23:00 4.2 100 0.0 0 0.0 - - - - - -
23/02/2021 23:10 4.4 99 0.0 0 0.0 - - - - - -
23/02/2021 23:20 4.4 100 0.0 0 0.0 - - - - - -
23/02/2021 23:30 4.3 100 0.0 0 0.0 - - - - - -
23/02/2021 23:40 4.4 99 0.0 0 0.0 - - - - - -
23/02/2021 23:50 4.5 100 0.0 0 0.0 - - - - - -
Anterior Página 1 de 1 Siguiente
Los datos de precipitación registrados en estaciones que están en cumbres son inferiores a lo real, como consecuencia del efecto del viento y de la nieve.


NOTA: Tipo de datos según el color:
   - Valores diarios o 10 minutos correctos
   - Valores diarios calculados a partir de un número de datos 10 minutos menor que 144 y mayor que 120, o de un número de datos semihorarios menor que 48 y mayor que 40 (caso de las estaciones de INTIA Y Ministerio)
   - Valores diez minutos estimados


Contacto        Enlaces        Aviso legal